Bornholm — C4KF2 — position and weather

sailwx.info

Track history (hours):
 
Tides and Currents Weather Stations Pressure Air Temp Water Temp Dewpoint Dewpoint Depression Visibility Wind Speed Wind Dir Waves Ship Positions

Bornholm

Last reported at 2014-Jul-30 21:33 UTC. Time now 2014-Jul-31 07:33 UTC.
Position N 48°05' W 006°28'.

Length 118 m; draft 7 m.

Type: Cargo ship. MMSI: 212521000.

Date/timePositionNaut miles runAvg speedWind from/ knotsBaromVisibWave heightAir tempDewpointWater temp
2014-Jul-30 21:33N 48°05' W 006°28'23112.6
2014-Jul-30 03:09N 50°15' W 001°35'1015.7
2014-Jul-30 02:31N 50°17' W 001°20'1414.8
2014-Jul-30 01:33N 50°21' W 000°59'1412.6
2014-Jul-30 00:29N 50°25' W 000°38'2210.9
2014-Jul-29 22:27N 50°31' W 000°05'910.4
2014-Jul-29 21:33N 50°34' E 000°09'1111.2
2014-Jul-29 20:33N 50°37' E 000°26'1312.8
2014-Jul-29 19:33N 50°43' E 000°44'1414.0
2014-Jul-29 18:33N 50°51' E 001°02'1413.7
2014-Jul-29 17:33N 51°00' E 001°19'1212.4
2014-Jul-29 16:34N 51°07' E 001°35'1111.0
2014-Jul-29 15:34N 51°15' E 001°48'1110.9
2014-Jul-29 14:33N 51°24' E 001°55'1211.7
2014-Jul-29 13:33N 51°34' E 002°07'1212.3
2014-Jul-29 12:33N 51°42' E 002°21'1413.5
2014-Jul-29 11:33N 51°53' E 002°35'1414.3
2014-Jul-29 10:33N 52°04' E 002°49'2114.4
2014-Jul-29 09:04N 52°21' E 003°10'9412.5
2014-Jul-29 01:33N 53°31' E 004°53'1413.9
2014-Jul-29 00:34N 53°36' E 005°15'1313.3
2014-Jul-28 23:34N 53°40' E 005°36'1312.5
2014-Jul-28 22:33N 53°45' E 005°56'1611.7
2014-Jul-28 21:12N 53°50' E 006°21'811.6
2014-Jul-28 20:31N 53°52' E 006°34'1512.1
2014-Jul-28 19:17N 53°56' E 006°58'1013.1
2014-Jul-28 18:32N 53°58' E 007°14'1413.9
2014-Jul-28 17:33N 54°01' E 007°37'1413.7
2014-Jul-28 16:33N 54°01' E 008°00'1514.7
2014-Jul-28 15:33N 53°59' E 008°25'1313.2
2014-Jul-28 14:33N 53°52' E 008°44'1110.6
2014-Jul-28 13:32N 53°52' E 009°02'4 4.1
2014-Jul-28 12:33N 53°54' E 009°09'3 2.6
2014-Jul-28 11:33N 53°55' E 009°12'9 8.7
2014-Jul-28 10:33N 54°03' E 009°18'8 7.6
2014-Jul-28 09:27N 54°10' E 009°26'55 5.9
2014-Jul-28 00:16N 54°35' E 010°50'810.8
2014-Jul-27 23:31N 54°36' E 011°04'1111.5
2014-Jul-27 22:33N 54°33' E 011°22'1111.3
2014-Jul-27 21:33N 54°28' E 011°40'1111.0
2014-Jul-27 20:33N 54°27' E 011°58'10 9.6
2014-Jul-27 19:33N 54°32' E 012°12'1110.8
2014-Jul-27 18:33N 54°40' E 012°24'1111.4
2014-Jul-27 17:33N 54°46' E 012°41'1111.1
2014-Jul-27 16:33N 54°50' E 012°59'1111.5
2014-Jul-27 15:33N 54°54' E 013°18'1211.5
2014-Jul-27 14:33N 54°58' E 013°37'1111.4
2014-Jul-27 13:33N 55°02' E 013°55'1611.0
2014-Jul-27 12:05N 55°13' E 014°17'711.8
2014-Jul-27 11:30N 55°18' E 014°24'1111.5
2014-Jul-27 10:33N 55°27' E 014°36'1211.5
2014-Jul-27 09:30N 55°33' E 014°54'1111.4
2014-Jul-27 08:33N 55°38' E 015°11'1211.6
2014-Jul-27 07:33N 55°43' E 015°29'1211.7
2014-Jul-27 06:33N 55°49' E 015°47'2712.2
2014-Jul-27 04:22N 56°03' E 016°29'2312.3
2014-Jul-27 02:28N 56°16' E 017°03'4012.1
2014-Jul-26 23:08N 56°41' E 018°01'712.1
2014-Jul-26 22:33N 56°45' E 018°11'1212.2
2014-Jul-26 21:33N 56°52' E 018°29'1212.2
2014-Jul-26 20:33N 57°02' E 018°41'1212.2
2014-Jul-26 19:33N 57°13' E 018°52'1212.2
2014-Jul-26 18:33N 57°23' E 019°05'1312.2
2014-Jul-26 17:30N 57°33' E 019°20'6312.5
2014-Jul-26 12:28N 58°23' E 020°31'3712.8
2014-Jul-26 09:33N 58°53' E 021°14'1312.8
2014-Jul-26 08:33N 59°03' E 021°29'1312.5
2014-Jul-26 07:33N 59°13' E 021°44'1312.6
2014-Jul-26 06:33N 59°21' E 022°04'1312.6
2014-Jul-26 05:33N 59°28' E 022°24'1212.4
2014-Jul-26 04:33N 59°34' E 022°46'1312.9
2014-Jul-26 03:33N 59°37' E 023°10'1312.6
2014-Jul-26 02:33N 59°40' E 023°34'1312.9
2014-Jul-26 01:33N 59°44' E 023°59'1313.0
2014-Jul-26 00:33N 59°47' E 024°24'1312.7
2014-Jul-25 23:33N 59°50' E 024°48'1312.7
2014-Jul-25 22:33N 59°53' E 025°13'1312.8
2014-Jul-25 21:33N 59°56' E 025°38'1212.5
2014-Jul-25 20:33N 60°03' E 025°58'1212.3
2014-Jul-25 19:33N 60°09' E 026°20'1212.0
2014-Jul-25 18:34N 60°19' E 026°34'1111.2
2014-Jul-25 17:34N 60°22' E 026°56'8 8.1
2014-Jul-25 16:33N 60°27' E 027°09'5 1.5
2014-Jul-25 13:22N 60°32' E 027°10'0 0.0
2014-Jul-25 12:28N 60°32' E 027°10'0 0.0
2014-Jul-25 10:28N 60°32' E 027°10'0 0.0
2014-Jul-25 09:31N 60°32' E 027°10'0 0.0
2014-Jul-25 08:31N 60°32' E 027°10'0 0.0
2014-Jul-25 07:31N 60°32' E 027°10'0 0.0
2014-Jul-25 04:19N 60°32' E 027°10'0 0.0
2014-Jul-25 03:31N 60°32' E 027°10'0 0.0
2014-Jul-25 02:31N 60°32' E 027°10'0 0.0
2014-Jul-25 01:31N 60°32' E 027°10'0 0.0
2014-Jul-25 00:31N 60°32' E 027°10'0 0.0
2014-Jul-24 23:34N 60°32' E 027°10'0 0.0
2014-Jul-24 22:28N 60°32' E 027°10'0 0.0
2014-Jul-24 21:31N 60°32' E 027°10'0 0.0
2014-Jul-24 20:31N 60°32' E 027°10'0 0.0
2014-Jul-24 15:14N 60°32' E 027°10'0 0.0
2014-Jul-24 14:05N 60°32' E 027°10'0 0.0
2014-Jul-24 13:32N 60°32' E 027°10'0 0.0
2014-Jul-24 10:23N 60°32' E 027°10'0 0.0
2014-Jul-24 09:12N 60°32' E 027°10'0 0.0
2014-Jul-24 08:30N 60°32' E 027°10'0 0.0
2014-Jul-24 07:21N 60°32' E 027°10'0 0.0
2014-Jul-24 06:33N 60°32' E 027°10'0 0.0
2014-Jul-24 03:15N 60°32' E 027°10'0 0.0
2014-Jul-24 02:33N 60°32' E 027°10'0 0.0
2014-Jul-24 01:03N 60°32' E 027°10'0 0.2
2014-Jul-24 00:33N 60°32' E 027°10'4 4.4
2014-Jul-23 23:34N 60°27' E 027°09'1010.0
2014-Jul-23 22:33N 60°22' E 026°51'1212.1
2014-Jul-23 21:33N 60°16' E 026°30'1211.8
2014-Jul-23 20:33N 60°07' E 026°16'1413.4
2014-Jul-23 19:30N 59°55' E 025°59'6513.2
2014-Jul-23 14:33N 59°39' E 023°54'1312.8
2014-Jul-23 13:33N 59°35' E 023°30'6813.1
2014-Jul-23 08:23N 58°60' E 021°37'1212.9
2014-Jul-23 07:29N 58°59' E 021°15'1213.0
2014-Jul-23 06:33N 58°57' E 020°51'1712.7
2014-Jul-23 05:14N 58°53' E 020°20'912.9
2014-Jul-23 04:33N 58°52' E 020°03'1313.1
2014-Jul-23 03:33N 58°50' E 019°38'2913.2
2014-Jul-23 01:21N 58°44' E 018°43'1113.1
2014-Jul-23 00:33N 58°42' E 018°23'3812.8
2014-Jul-22 21:33N 58°37' E 017°09'1312.9
2014-Jul-22 20:33N 58°37' E 016°44'1212.1
2014-Jul-22 19:33N 58°38' E 016°21'4 3.7
2014-Jul-22 18:33N 58°37' E 016°15'0 0.0
2014-Jul-22 17:25N 58°37' E 016°15'0 0.0
2014-Jul-22 16:31N 58°37' E 016°15'0 0.0
2014-Jul-22 15:31N 58°37' E 016°15'0 0.0
2014-Jul-22 14:28N 58°37' E 016°15'0 0.0
2014-Jul-22 13:28N 58°37' E 016°15'0 0.0
2014-Jul-22 12:28N 58°37' E 016°15'0 0.0
2014-Jul-22 11:16N 58°37' E 016°15'0 0.0
2014-Jul-22 10:28N 58°37' E 016°15'0 0.0
2014-Jul-22 09:28N 58°37' E 016°15'0 0.0
2014-Jul-22 08:22N 58°37' E 016°15'0 0.0
2014-Jul-22 07:28N 58°37' E 016°15'0 0.0
2014-Jul-22 06:31N 58°37' E 016°15'0 0.0
2014-Jul-22 05:28N 58°37' E 016°15'0 0.0
2014-Jul-22 04:31N 58°37' E 016°15'0 0.0
2014-Jul-22 03:31N 58°37' E 016°15'0 0.0
2014-Jul-22 02:28N 58°37' E 016°15'0 0.0
2014-Jul-22 01:25N 58°37' E 016°15'0 0.0
2014-Jul-22 00:22N 58°37' E 016°15'0 0.0
2014-Jul-21 23:28N 58°37' E 016°15'0 0.0
2014-Jul-21 22:28N 58°37' E 016°15'0 0.0
2014-Jul-21 21:28N 58°37' E 016°15'0 0.0
2014-Jul-21 20:28N 58°37' E 016°15'0 0.0
2014-Jul-21 20:16N 58°37' E 016°15'0 0.0
2014-Jul-21 19:31N 58°37' E 016°15'0 0.0
2014-Jul-21 18:31N 58°37' E 016°15'0 0.0
2014-Jul-21 17:28N 58°37' E 016°15'0 0.0
2014-Jul-21 16:28N 58°37' E 016°15'0 0.0
2014-Jul-21 15:31N 58°37' E 016°15'0 0.0
2014-Jul-21 14:28N 58°37' E 016°15'0 0.0
2014-Jul-21 13:31N 58°37' E 016°15'0 0.0
2014-Jul-21 12:31N 58°37' E 016°15'0 0.0
2014-Jul-21 11:31N 58°37' E 016°15'0 0.0
2014-Jul-21 10:28N 58°37' E 016°15'0 0.0
2014-Jul-21 08:28N 58°37' E 016°15'0 0.0
2014-Jul-21 07:31N 58°37' E 016°15'0 0.0
2014-Jul-21 06:16N 58°37' E 016°15'0 0.0
2014-Jul-21 05:31N 58°37' E 016°15'0 0.0
2014-Jul-21 04:31N 58°37' E 016°15'0 0.0
2014-Jul-21 03:28N 58°37' E 016°15'0 0.0
2014-Jul-21 02:31N 58°37' E 016°15'0 0.0
2014-Jul-21 01:28N 58°37' E 016°15'0 0.0
2014-Jul-21 00:28N 58°37' E 016°15'0 0.0
2014-Jul-20 23:31N 58°37' E 016°15'0 0.0
2014-Jul-20 22:31N 58°37' E 016°15'  
Track history (hours):
 
Tides and Currents Weather Stations Pressure Air Temp Water Temp Dewpoint Dewpoint Depression Visibility Wind Speed Wind Dir Waves Ship Positions

Bornholm

Last reported at 2014-Jul-30 21:33 UTC. Time now 2014-Jul-31 07:33 UTC.
Position N 48°05' W 006°28'.

Length 118 m; draft 7 m.

Type: Cargo ship. MMSI: 212521000.

Date/timePositionNaut miles runAvg speedWind from/ knotsBaromVisibWave heightAir tempDewpointWater temp
2014-Jul-30 21:33N 48°05' W 006°28'23112.6
2014-Jul-30 03:09N 50°15' W 001°35'1015.7
2014-Jul-30 02:31N 50°17' W 001°20'1414.8
2014-Jul-30 01:33N 50°21' W 000°59'1412.6
2014-Jul-30 00:29N 50°25' W 000°38'2210.9
2014-Jul-29 22:27N 50°31' W 000°05'910.4
2014-Jul-29 21:33N 50°34' E 000°09'1111.2
2014-Jul-29 20:33N 50°37' E 000°26'1312.8
2014-Jul-29 19:33N 50°43' E 000°44'1414.0
2014-Jul-29 18:33N 50°51' E 001°02'1413.7
2014-Jul-29 17:33N 51°00' E 001°19'1212.4
2014-Jul-29 16:34N 51°07' E 001°35'1111.0
2014-Jul-29 15:34N 51°15' E 001°48'1110.9
2014-Jul-29 14:33N 51°24' E 001°55'1211.7
2014-Jul-29 13:33N 51°34' E 002°07'1212.3
2014-Jul-29 12:33N 51°42' E 002°21'1413.5
2014-Jul-29 11:33N 51°53' E 002°35'1414.3
2014-Jul-29 10:33N 52°04' E 002°49'2114.4
2014-Jul-29 09:04N 52°21' E 003°10'9412.5
2014-Jul-29 01:33N 53°31' E 004°53'1413.9
2014-Jul-29 00:34N 53°36' E 005°15'1313.3
2014-Jul-28 23:34N 53°40' E 005°36'1312.5
2014-Jul-28 22:33N 53°45' E 005°56'1611.7
2014-Jul-28 21:12N 53°50' E 006°21'811.6
2014-Jul-28 20:31N 53°52' E 006°34'1512.1
2014-Jul-28 19:17N 53°56' E 006°58'1013.1
2014-Jul-28 18:32N 53°58' E 007°14'1413.9
2014-Jul-28 17:33N 54°01' E 007°37'1413.7
2014-Jul-28 16:33N 54°01' E 008°00'1514.7
2014-Jul-28 15:33N 53°59' E 008°25'1313.2
2014-Jul-28 14:33N 53°52' E 008°44'1110.6
2014-Jul-28 13:32N 53°52' E 009°02'4 4.1
2014-Jul-28 12:33N 53°54' E 009°09'3 2.6
2014-Jul-28 11:33N 53°55' E 009°12'9 8.7
2014-Jul-28 10:33N 54°03' E 009°18'8 7.6
2014-Jul-28 09:27N 54°10' E 009°26'55 5.9
2014-Jul-28 00:16N 54°35' E 010°50'810.8
2014-Jul-27 23:31N 54°36' E 011°04'1111.5
2014-Jul-27 22:33N 54°33' E 011°22'1111.3
2014-Jul-27 21:33N 54°28' E 011°40'1111.0
2014-Jul-27 20:33N 54°27' E 011°58'10 9.6
2014-Jul-27 19:33N 54°32' E 012°12'1110.8
2014-Jul-27 18:33N 54°40' E 012°24'1111.4
2014-Jul-27 17:33N 54°46' E 012°41'1111.1
2014-Jul-27 16:33N 54°50' E 012°59'1111.5
2014-Jul-27 15:33N 54°54' E 013°18'1211.5
2014-Jul-27 14:33N 54°58' E 013°37'1111.4
2014-Jul-27 13:33N 55°02' E 013°55'1611.0
2014-Jul-27 12:05N 55°13' E 014°17'711.8
2014-Jul-27 11:30N 55°18' E 014°24'1111.5
2014-Jul-27 10:33N 55°27' E 014°36'1211.5
2014-Jul-27 09:30N 55°33' E 014°54'1111.4
2014-Jul-27 08:33N 55°38' E 015°11'1211.6
2014-Jul-27 07:33N 55°43' E 015°29'1211.7
2014-Jul-27 06:33N 55°49' E 015°47'2712.2
2014-Jul-27 04:22N 56°03' E 016°29'2312.3
2014-Jul-27 02:28N 56°16' E 017°03'4012.1
2014-Jul-26 23:08N 56°41' E 018°01'712.1
2014-Jul-26 22:33N 56°45' E 018°11'1212.2
2014-Jul-26 21:33N 56°52' E 018°29'1212.2
2014-Jul-26 20:33N 57°02' E 018°41'1212.2
2014-Jul-26 19:33N 57°13' E 018°52'1212.2
2014-Jul-26 18:33N 57°23' E 019°05'1312.2
2014-Jul-26 17:30N 57°33' E 019°20'6312.5
2014-Jul-26 12:28N 58°23' E 020°31'3712.8
2014-Jul-26 09:33N 58°53' E 021°14'1312.8
2014-Jul-26 08:33N 59°03' E 021°29'1312.5
2014-Jul-26 07:33N 59°13' E 021°44'1312.6
2014-Jul-26 06:33N 59°21' E 022°04'1312.6
2014-Jul-26 05:33N 59°28' E 022°24'1212.4
2014-Jul-26 04:33N 59°34' E 022°46'1312.9
2014-Jul-26 03:33N 59°37' E 023°10'1312.6
2014-Jul-26 02:33N 59°40' E 023°34'1312.9
2014-Jul-26 01:33N 59°44' E 023°59'1313.0
2014-Jul-26 00:33N 59°47' E 024°24'1312.7
2014-Jul-25 23:33N 59°50' E 024°48'1312.7
2014-Jul-25 22:33N 59°53' E 025°13'1312.8
2014-Jul-25 21:33N 59°56' E 025°38'1212.5
2014-Jul-25 20:33N 60°03' E 025°58'1212.3
2014-Jul-25 19:33N 60°09' E 026°20'1212.0
2014-Jul-25 18:34N 60°19' E 026°34'1111.2
2014-Jul-25 17:34N 60°22' E 026°56'8 8.1
2014-Jul-25 16:33N 60°27' E 027°09'5 1.5
2014-Jul-25 13:22N 60°32' E 027°10'0 0.0
2014-Jul-25 12:28N 60°32' E 027°10'0 0.0
2014-Jul-25 10:28N 60°32' E 027°10'0 0.0
2014-Jul-25 09:31N 60°32' E 027°10'0 0.0
2014-Jul-25 08:31N 60°32' E 027°10'0 0.0
2014-Jul-25 07:31N 60°32' E 027°10'0 0.0
2014-Jul-25 04:19N 60°32' E 027°10'0 0.0
2014-Jul-25 03:31N 60°32' E 027°10'0 0.0
2014-Jul-25 02:31N 60°32' E 027°10'0 0.0
2014-Jul-25 01:31N 60°32' E 027°10'0 0.0
2014-Jul-25 00:31N 60°32' E 027°10'0 0.0
2014-Jul-24 23:34N 60°32' E 027°10'0 0.0
2014-Jul-24 22:28N 60°32' E 027°10'0 0.0
2014-Jul-24 21:31N 60°32' E 027°10'0 0.0
2014-Jul-24 20:31N 60°32' E 027°10'0 0.0
2014-Jul-24 15:14N 60°32' E 027°10'0 0.0
2014-Jul-24 14:05N 60°32' E 027°10'0 0.0
2014-Jul-24 13:32N 60°32' E 027°10'0 0.0
2014-Jul-24 10:23N 60°32' E 027°10'0 0.0
2014-Jul-24 09:12N 60°32' E 027°10'0 0.0
2014-Jul-24 08:30N 60°32' E 027°10'0 0.0
2014-Jul-24 07:21N 60°32' E 027°10'0 0.0
2014-Jul-24 06:33N 60°32' E 027°10'0 0.0
2014-Jul-24 03:15N 60°32' E 027°10'0 0.0
2014-Jul-24 02:33N 60°32' E 027°10'0 0.0
2014-Jul-24 01:03N 60°32' E 027°10'0 0.2
2014-Jul-24 00:33N 60°32' E 027°10'4 4.4
2014-Jul-23 23:34N 60°27' E 027°09'1010.0
2014-Jul-23 22:33N 60°22' E 026°51'1212.1
2014-Jul-23 21:33N 60°16' E 026°30'1211.8
2014-Jul-23 20:33N 60°07' E 026°16'1413.4
2014-Jul-23 19:30N 59°55' E 025°59'6513.2
2014-Jul-23 14:33N 59°39' E 023°54'1312.8
2014-Jul-23 13:33N 59°35' E 023°30'6813.1
2014-Jul-23 08:23N 58°60' E 021°37'1212.9
2014-Jul-23 07:29N 58°59' E 021°15'1213.0
2014-Jul-23 06:33N 58°57' E 020°51'1712.7
2014-Jul-23 05:14N 58°53' E 020°20'912.9
2014-Jul-23 04:33N 58°52' E 020°03'1313.1
2014-Jul-23 03:33N 58°50' E 019°38'2913.2
2014-Jul-23 01:21N 58°44' E 018°43'1113.1
2014-Jul-23 00:33N 58°42' E 018°23'3812.8
2014-Jul-22 21:33N 58°37' E 017°09'1312.9
2014-Jul-22 20:33N 58°37' E 016°44'1212.1
2014-Jul-22 19:33N 58°38' E 016°21'4 3.7
2014-Jul-22 18:33N 58°37' E 016°15'0 0.0
2014-Jul-22 17:25N 58°37' E 016°15'0 0.0
2014-Jul-22 16:31N 58°37' E 016°15'0 0.0
2014-Jul-22 15:31N 58°37' E 016°15'0 0.0
2014-Jul-22 14:28N 58°37' E 016°15'0 0.0
2014-Jul-22 13:28N 58°37' E 016°15'0 0.0
2014-Jul-22 12:28N 58°37' E 016°15'0 0.0
2014-Jul-22 11:16N 58°37' E 016°15'0 0.0
2014-Jul-22 10:28N 58°37' E 016°15'0 0.0
2014-Jul-22 09:28N 58°37' E 016°15'0 0.0
2014-Jul-22 08:22N 58°37' E 016°15'0 0.0
2014-Jul-22 07:28N 58°37' E 016°15'0 0.0
2014-Jul-22 06:31N 58°37' E 016°15'0 0.0
2014-Jul-22 05:28N 58°37' E 016°15'0 0.0
2014-Jul-22 04:31N 58°37' E 016°15'0 0.0
2014-Jul-22 03:31N 58°37' E 016°15'0 0.0
2014-Jul-22 02:28N 58°37' E 016°15'0 0.0
2014-Jul-22 01:25N 58°37' E 016°15'0 0.0
2014-Jul-22 00:22N 58°37' E 016°15'0 0.0
2014-Jul-21 23:28N 58°37' E 016°15'0 0.0
2014-Jul-21 22:28N 58°37' E 016°15'0 0.0
2014-Jul-21 21:28N 58°37' E 016°15'0 0.0
2014-Jul-21 20:28N 58°37' E 016°15'0 0.0
2014-Jul-21 20:16N 58°37' E 016°15'0 0.0
2014-Jul-21 19:31N 58°37' E 016°15'0 0.0
2014-Jul-21 18:31N 58°37' E 016°15'0 0.0
2014-Jul-21 17:28N 58°37' E 016°15'0 0.0
2014-Jul-21 16:28N 58°37' E 016°15'0 0.0
2014-Jul-21 15:31N 58°37' E 016°15'0 0.0
2014-Jul-21 14:28N 58°37' E 016°15'0 0.0
2014-Jul-21 13:31N 58°37' E 016°15'0 0.0
2014-Jul-21 12:31N 58°37' E 016°15'0 0.0
2014-Jul-21 11:31N 58°37' E 016°15'0 0.0
2014-Jul-21 10:28N 58°37' E 016°15'0 0.0
2014-Jul-21 08:28N 58°37' E 016°15'0 0.0
2014-Jul-21 07:31N 58°37' E 016°15'0 0.0
2014-Jul-21 06:16N 58°37' E 016°15'0 0.0
2014-Jul-21 05:31N 58°37' E 016°15'0 0.0
2014-Jul-21 04:31N 58°37' E 016°15'0 0.0
2014-Jul-21 03:28N 58°37' E 016°15'0 0.0
2014-Jul-21 02:31N 58°37' E 016°15'0 0.0
2014-Jul-21 01:28N 58°37' E 016°15'0 0.0
2014-Jul-21 00:28N 58°37' E 016°15'0 0.0
2014-Jul-20 23:31N 58°37' E 016°15'0 0.0
2014-Jul-20 22:31N 58°37' E 016°15'  

Dump ship's entire track history